Flight Track Log - Related Links

Times and Time Zones

All times are in EDT time to prevent confusion due to time zone crossing. See the CES2509 flight status page for this flight to view local times or setup timezone preferences in your user account.

Time Position Orientation Groundspeed Altitude Reporting Facility
EDT Latitude Longitude Course Direction KTS MPH feet Rate Location/Type
Thu 07:02:00 AM 30.8737 115.3109 84° East  Level Estimated
Thu 07:03:00 AM 30.8831 115.4335 85° East  Level Estimated
Thu 07:04:00 AM 30.8924 115.5562 85° East  Level Estimated
Thu 07:05:00 AM 30.9016 115.6789 85° East  Level Estimated
Thu 07:06:00 AM 30.9107 115.8016 85° East  Level Estimated
Thu 07:07:00 AM 30.9196 115.9244 85° East  Level Estimated
Thu 07:08:00 AM 30.9285 116.0472 85° East  Level Estimated
Thu 07:09:00 AM 30.9372 116.1700 85° East  Level Estimated
Thu 07:10:00 AM 30.9458 116.2928 85° East  Level Estimated
Thu 07:11:00 AM 30.9543 116.4156 85° East  Level Estimated
Thu 07:12:00 AM 30.9627 116.5385 85° East  Level Estimated
Thu 07:13:00 AM 30.9709 116.6614 85° East  Level Estimated
Thu 07:14:00 AM 30.9791 116.7843 86° East  Level Estimated
Thu 07:15:00 AM 30.9871 116.9072 86° East  Level Estimated
Thu 07:16:00 AM 30.9950 117.0301 86° East  Level Estimated
Thu 07:17:00 AM 31.0028 117.1531 86° East  Level Estimated
Thu 07:18:00 AM 31.0105 117.2761 86° East  Level Estimated
Thu 07:19:00 AM 31.0180 117.3991 86° East  Level Estimated
Thu 07:20:00 AM 31.0255 117.5221 86° East  Level Estimated
Thu 07:21:00 AM 31.0328 117.6451 86° East  Level Estimated
Thu 07:22:00 AM 31.0400 117.7682 86° East  Level Estimated
Thu 07:23:00 AM 31.0471 117.8913 86° East  Level Estimated
Thu 07:24:00 AM 31.0541 118.0144 86° East  Level Estimated
Thu 07:25:00 AM 31.0609 118.1375 86° East  Level Estimated
Thu 07:26:00 AM 31.0677 118.2607 86° East  Level Estimated
Thu 07:27:00 AM 31.0743 118.3838 86° East  Level Estimated
Thu 07:28:00 AM 31.0808 118.5070 86° East  Level Estimated
Thu 07:29:00 AM 31.0872 118.6301 87° East  Level Estimated
Thu 07:30:00 AM 31.0935 118.7533 87° East  Level Estimated
Thu 07:31:00 AM 31.0996 118.8766 87° East  Level Estimated
Thu 07:32:00 AM 31.1057 118.9998 87° East  Level Estimated
Thu 07:33:00 AM 31.1116 119.1230 87° East  Level Estimated
Thu 07:34:00 AM 31.1174 119.2463 87° East  Level Estimated
Thu 07:35:00 AM 31.1231 119.3696 87° East  Level Estimated
Thu 07:36:00 AM 31.1287 119.4929 87° East  Level Estimated
Thu 07:37:00 AM 31.1341 119.6162 87° East  Level Estimated
Thu 07:38:00 AM 31.1395 119.7395 87° East  Level Estimated
Thu 07:39:00 AM 31.1447 119.8629 87° East  Level Estimated
Thu 07:40:00 AM 31.1498 119.9862 87° East  Level Estimated
Thu 07:41:00 AM 31.1548 120.1096 87° East  Level Estimated
Thu 07:42:00 AM 31.1596 120.2329 87° East  Level Estimated
Thu 07:43:00 AM 31.1644 120.3563 87° East  Level Estimated
Thu 07:44:00 AM 31.1690 120.4797 87° East  Level Estimated
Thu 07:45:00 AM 31.1735 120.6031 88° East  Level Estimated
Thu 07:46:00 AM 31.1779 120.7266 88° East  Level Estimated
Thu 07:47:00 AM 31.1822 120.8500 88° East  Level Estimated
Thu 07:48:00 AM 31.1863 120.9734 88° East  Level Estimated
Thu 07:49:00 AM 31.1904 121.0969 88° East  Level Estimated
Thu 07:50:00 AM 31.1947 121.2320 88° East  Level Estimated
Thu 07:51:00 AM 31.1979 121.3363 88° East  Level Estimated
Thu 07:52:00 AM 31.1979 121.3363 North  Level Estimated
Thu 07:53:00 AM 31.1979 121.3363 North  Level Estimated
Thu 07:54:00 AM 31.1979 121.3363 North  Level Estimated
Thu 07:55:00 AM 31.1979 121.3363 North  Level Estimated
Thu 07:56:00 AM 31.1979 121.3363 North  Level Estimated
Thu 07:57:00 AM 31.1979 121.3363 North  Level Estimated
Thu 07:58:00 AM 31.1979 121.3363 North  Level Estimated
Thu 07:59:00 AM 31.1979 121.3363 North  Level Estimated
Thu 08:00:00 AM 31.1979 121.3363 North  Level Estimated
Thu 08:01:00 AM 31.1979 121.3363 North  Level Estimated
Thu 08:02:00 AM 31.1979 121.3363 North  Level Estimated

Login

Don't have an account? Register now (free) for customized features, flight alerts, and more!